Time;durP1;ratioP1;P1;durP2;ratioP2;P2;SDS_P1;SDS_P2;PMS_P1;PMS_P2;Temp;Humidity;BMP_temperature;BMP_pressure;BME280_temperature;BME280_humidity;BME280_pressure;Samples;Min_cycle;Max_cycle;Signal;HPM_P1;HPM_P2
2023/02/06 00:01:06;;;;;;;12.73;11.40;;;;;;;5.58;82.37;102392.56;10256784;28;20051;-48
2023/02/06 00:06:08;;;;;;;10.85;9.75;;;;;;;5.63;82.19;102401.25;10253541;28;20521;-48
2023/02/06 00:11:12;;;;;;;11.48;10.38;;;;;;;5.63;83.09;102382.78;10257867;28;20079;-46
2023/02/06 00:16:25;;;;;;;10.90;9.90;;;;;;;5.64;82.77;102397.72;10250609;28;20054;-47
2023/02/06 00:21:28;;;;;;;11.18;10.15;;;;;;;5.62;82.38;102404.81;10259052;28;20149;-46
2023/02/06 00:26:30;;;;;;;11.18;10.07;;;;;;;5.55;81.24;102395.28;10267773;28;20050;-46
2023/02/06 00:31:31;;;;;;;11.63;10.50;;;;;;;5.51;81.48;102409.50;10256996;28;20046;-47
2023/02/06 00:36:33;;;;;;;11.45;10.23;;;;;;;5.52;81.34;102415.66;10252806;28;20047;-47
2023/02/06 00:41:35;;;;;;;11.63;10.43;;;;;;;5.48;82.60;102412.22;10268274;28;20061;-47
2023/02/06 00:46:36;;;;;;;10.50;9.50;;;;;;;5.65;81.96;102420.56;10258090;28;20530;-46
2023/02/06 00:51:38;;;;;;;10.40;9.40;;;;;;;5.62;81.44;102425.94;10255372;28;20054;-46
2023/02/06 00:56:39;;;;;;;10.70;9.70;;;;;;;5.64;80.63;102416.22;10252723;28;20063;-46
2023/02/06 01:01:41;;;;;;;10.70;9.68;;;;;;;5.66;80.41;102435.53;10258656;28;20053;-46
2023/02/06 01:06:42;;;;;;;11.07;9.95;;;;;;;5.61;80.96;102434.75;10254236;28;20121;-47
2023/02/06 01:11:44;;;;;;;10.75;9.75;;;;;;;5.68;80.53;102435.50;10272928;28;20081;-50
2023/02/06 01:16:45;;;;;;;11.05;10.05;;;;;;;5.71;80.45;102437.19;10251997;28;20057;-46
2023/02/06 01:21:47;;;;;;;11.50;10.45;;;;;;;5.64;80.39;102441.75;10254213;28;20181;-46
2023/02/06 01:26:48;;;;;;;11.02;10.02;;;;;;;5.57;80.63;102446.34;10259116;28;20365;-47
2023/02/06 01:31:49;;;;;;;10.18;9.18;;;;;;;5.54;80.77;102442.88;10262088;28;20843;-46
2023/02/06 01:36:51;;;;;;;10.45;9.43;;;;;;;5.60;81.34;102429.53;10264579;28;20368;-47
2023/02/06 01:41:52;;;;;;;11.40;10.35;;;;;;;5.60;80.91;102427.75;10260442;28;20854;-47
2023/02/06 01:46:55;;;;;;;11.38;10.38;;;;;;;5.61;81.03;102434.75;10264482;28;20165;-47
2023/02/06 01:52:16;;;;;;;10.45;9.35;;;;;;;5.65;80.68;102436.44;10261429;28;20060;-48
2023/02/06 01:57:18;;;;;;;10.00;9.05;;;;;;;5.62;80.42;102452.38;10266471;28;20077;-48
2023/02/06 02:02:24;;;;;;;8.95;8.15;;;;;;;5.63;79.52;102422.41;10263647;28;20098;-47
2023/02/06 02:07:30;;;;;;;8.40;7.60;;;;;;;5.55;78.73;102419.06;10263202;28;20046;-47
2023/02/06 02:12:32;;;;;;;9.10;8.25;;;;;;;5.64;79.39;102413.59;10259348;28;20067;-47
2023/02/06 02:18:02;;;;;;;10.05;8.90;;;;;;;5.68;79.06;102413.50;10260300;28;20696;-47
2023/02/06 02:23:17;;;;;;;8.85;8.05;;;;;;;5.58;78.73;102423.41;10261596;28;20051;-47
2023/02/06 02:28:33;;;;;;;9.23;8.30;;;;;;;5.59;78.33;102415.44;10257557;28;20440;-47
2023/02/06 02:34:09;;;;;;;8.13;7.32;;;;;;;5.60;78.33;102401.34;10254419;28;20051;-47
2023/02/06 02:39:28;;;;;;;8.95;8.05;;;;;;;5.60;78.28;102401.34;10259913;28;20661;-47
2023/02/06 02:44:38;;;;;;;8.82;7.93;;;;;;;5.65;78.38;102399.44;10247893;28;20038;-47
2023/02/06 02:49:43;;;;;;;8.23;7.47;;;;;;;5.66;78.05;102390.63;10257959;28;20070;-47
2023/02/06 02:54:45;;;;;;;8.10;7.32;;;;;;;5.64;78.08;102399.47;10258914;28;20619;-47
2023/02/06 02:59:48;;;;;;;7.57;6.70;;;;;;;5.58;77.24;102397.84;10258377;28;20042;-47
2023/02/06 03:04:55;;;;;;;8.48;7.57;;;;;;;5.57;77.78;102404.06;10254429;28;20054;-47
2023/02/06 03:10:23;;;;;;;6.88;6.28;;;;;;;5.52;77.64;102413.00;10254792;28;20718;-47
2023/02/06 03:16:02;;;;;;;6.97;6.28;;;;;;;5.48;76.55;102422.78;10257297;28;20403;-47
2023/02/06 03:21:06;;;;;;;7.53;6.80;;;;;;;5.48;77.47;102426.28;10257367;28;20137;-47
2023/02/06 03:26:12;;;;;;;7.68;6.88;;;;;;;5.38;77.39;102426.56;10256524;28;20069;-47
2023/02/06 03:31:19;;;;;;;7.68;6.68;;;;;;;5.16;77.53;102397.13;10253611;28;20081;-48
2023/02/06 03:36:20;;;;;;;8.18;7.38;;;;;;;5.38;78.59;102416.00;10252898;28;20069;-47
2023/02/06 03:41:28;;;;;;;8.23;7.35;;;;;;;5.24;77.61;102424.22;10255988;28;20280;-48
2023/02/06 03:46:31;;;;;;;7.97;7.18;;;;;;;5.16;77.75;102423.53;10252869;28;20137;-47
2023/02/06 03:51:38;;;;;;;8.63;7.28;;;;;;;4.92;78.22;102381.84;10257274;28;20057;-46
2023/02/06 03:56:46;;;;;;;8.70;7.63;;;;;;;5.19;78.28;102424.34;10252739;28;20046;-46
2023/02/06 04:01:52;;;;;;;7.85;7.03;;;;;;;5.16;77.71;102426.19;10251347;28;20590;-48
2023/02/06 04:06:56;;;;;;;8.48;7.68;;;;;;;5.11;78.14;102426.28;10253255;28;20113;-46
2023/02/06 04:11:57;;;;;;;8.20;7.40;;;;;;;5.14;78.56;102415.66;10253291;28;20775;-46
2023/02/06 04:16:59;;;;;;;10.32;7.97;;;;;;;4.98;79.34;102386.09;10301736;23;20069;-68
2023/02/06 04:22:00;;;;;;;8.30;7.60;;;;;;;5.15;78.54;102420.06;10302550;23;20426;-46
2023/02/06 04:27:02;;;;;;;8.30;7.47;;;;;;;5.06;78.53;102421.13;10294607;28;20050;-45
2023/02/06 04:32:04;;;;;;;8.15;7.35;;;;;;;5.02;79.21;102426.50;10296153;28;20057;-46
2023/02/06 04:37:06;;;;;;;10.07;8.25;;;;;;;5.02;79.39;102434.44;10307015;28;20042;-45
2023/02/06 04:42:07;;;;;;;8.68;7.47;;;;;;;4.98;79.48;102428.31;10300019;28;20376;-46
2023/02/06 04:47:08;;;;;;;8.43;7.53;;;;;;;5.00;80.23;102413.34;10303800;28;20125;-46
2023/02/06 04:52:10;;;;;;;9.48;8.55;;;;;;;5.00;80.05;102426.53;10301887;28;20607;-46
2023/02/06 04:57:12;;;;;;;9.32;8.27;;;;;;;5.06;79.39;102425.50;10305008;28;20054;-46
2023/02/06 05:02:13;;;;;;;9.25;8.35;;;;;;;5.02;79.86;102429.16;10298335;28;20133;-46
2023/02/06 05:07:15;;;;;;;9.15;8.25;;;;;;;4.98;79.98;102427.47;10298938;28;20061;-46
2023/02/06 05:12:16;;;;;;;9.38;7.90;;;;;;;5.03;80.04;102428.22;10297915;28;20626;-46
2023/02/06 05:17:17;;;;;;;8.05;7.22;;;;;;;5.13;79.71;102432.41;10300263;28;20057;-46
2023/02/06 05:22:19;;;;;;;8.77;7.95;;;;;;;5.16;79.92;102442.03;10305514;28;20042;-46
2023/02/06 05:27:20;;;;;;;10.60;8.88;;;;;;;5.18;79.07;102445.50;10300179;28;20064;-46
2023/02/06 05:32:21;;;;;;;8.90;8.00;;;;;;;5.30;79.73;102434.66;10299166;28;20062;-46
2023/02/06 05:37:23;;;;;;;13.65;8.88;;;;;;;5.20;80.29;102433.13;10301310;28;20133;-47
2023/02/06 05:42:24;;;;;;;8.95;8.15;;;;;;;5.21;80.42;102435.75;10305341;28;20060;-47
2023/02/06 05:47:26;;;;;;;8.90;8.00;;;;;;;5.24;80.38;102429.50;10287635;28;20053;-46
2023/02/06 05:52:27;;;;;;;11.05;9.55;;;;;;;5.13;80.83;102433.28;10292126;28;20065;-46
2023/02/06 05:57:28;;;;;;;11.23;8.32;;;;;;;5.14;80.76;102424.44;10290506;28;20061;-46
2023/02/06 06:02:31;;;;;;;9.65;7.97;;;;;;;5.14;80.94;102420.94;10297758;28;20058;-47
2023/02/06 06:07:32;;;;;;;7.90;7.07;;;;;;;5.09;81.00;102404.34;10297834;28;20054;-46
2023/02/06 06:12:33;;;;;;;8.60;7.30;;;;;;;5.06;81.68;102414.94;10296088;28;20061;-46
2023/02/06 06:17:35;;;;;;;6.85;5.88;;;;;;;5.06;81.65;102404.38;10299929;28;20577;-47
2023/02/06 06:22:36;;;;;;;10.25;6.55;;;;;;;5.07;81.78;102398.22;10298582;28;20054;-48
2023/02/06 06:27:38;;;;;;;9.25;6.32;;;;;;;5.16;81.63;102383.94;10299696;28;20449;-47
2023/02/06 06:32:39;;;;;;;8.32;6.50;;;;;;;5.14;81.28;102405.09;10296241;28;20054;-46
2023/02/06 06:37:41;;;;;;;6.93;5.90;;;;;;;5.09;81.62;102399.06;10292765;28;20065;-47
2023/02/06 06:42:42;;;;;;;7.93;7.00;;;;;;;5.11;82.00;102424.50;10293236;28;20049;-46
2023/02/06 06:47:44;;;;;;;7.38;6.57;;;;;;;5.11;82.13;102424.50;10294990;28;20054;-47
2023/02/06 06:52:45;;;;;;;8.93;7.50;;;;;;;5.11;82.57;102424.50;10298995;28;20153;-51
2023/02/06 06:57:46;;;;;;;10.07;6.82;;;;;;;5.13;82.33;102422.72;10293325;28;20507;-47
2023/02/06 07:02:48;;;;;;;9.18;7.70;;;;;;;4.94;82.17;102395.88;10288678;28;20058;-47
2023/02/06 07:07:49;;;;;;;8.35;7.38;;;;;;;5.16;81.97;102434.09;10293664;28;20058;-46
2023/02/06 07:12:55;;;;;;;9.10;6.88;;;;;;;5.11;82.05;102423.66;10293327;28;20050;-46
2023/02/06 07:17:57;;;;;;;9.40;7.10;;;;;;;5.14;82.04;102429.72;10292182;28;20041;-49
2023/02/06 07:23:00;;;;;;;7.82;7.10;;;;;;;5.13;82.07;102432.41;10295085;28;20060;-46
2023/02/06 07:28:01;;;;;;;7.55;6.85;;;;;;;5.12;81.96;102438.59;10295219;28;20796;-46
2023/02/06 07:33:04;;;;;;;8.40;6.65;;;;;;;5.11;82.26;102442.13;10293568;28;20073;-45
2023/02/06 07:38:05;;;;;;;8.52;6.50;;;;;;;5.27;82.26;102438.25;10296867;28;22501;-45
2023/02/06 07:43:07;;;;;;;8.50;6.57;;;;;;;5.39;80.50;102425.63;10296604;28;20053;-46
2023/02/06 07:48:09;;;;;;;7.55;4.80;;;;;;;5.39;78.87;102423.00;10293896;28;20065;-46
2023/02/06 07:53:12;;;;;;;8.18;6.07;;;;;;;5.45;78.16;102428.13;10293186;28;20070;-46
2023/02/06 07:58:13;;;;;;;9.48;5.13;;;;;;;5.48;76.80;102433.34;10307440;28;20061;-47
2023/02/06 08:03:14;;;;;;;5.32;3.20;;;;;;;5.64;75.58;102424.16;10291462;28;20065;-46
2023/02/06 08:08:16;;;;;;;3.55;2.63;;;;;;;5.73;74.61;102438.88;10298359;28;20057;-47
2023/02/06 08:13:17;;;;;;;4.88;3.38;;;;;;;5.68;75.25;102442.56;10295886;28;20432;-52
2023/02/06 08:18:19;;;;;;;3.95;3.25;;;;;;;5.70;75.07;102451.31;10293176;28;20065;-46
2023/02/06 08:23:20;;;;;;;3.35;2.65;;;;;;;5.86;73.30;102431.53;10294451;28;20698;-47
2023/02/06 08:28:22;;;;;;;4.05;3.65;;;;;;;5.84;72.65;102423.63;10294083;28;20483;-47
2023/02/06 08:33:23;;;;;;;3.33;2.80;;;;;;;5.78;71.73;102415.84;10293797;28;20057;-46
2023/02/06 08:38:25;;;;;;;3.40;2.38;;;;;;;5.74;72.56;102435.34;10296520;28;20050;-48
2023/02/06 08:43:26;;;;;;;4.95;3.15;;;;;;;5.77;71.77;102434.41;10293393;28;20114;-48
2023/02/06 08:48:28;;;;;;;4.90;2.90;;;;;;;5.72;72.35;102436.28;10292014;28;20217;-47
2023/02/06 08:53:30;;;;;;;3.58;2.50;;;;;;;5.62;70.76;102427.72;10294850;28;20053;-47
2023/02/06 08:58:32;;;;;;;3.50;2.40;;;;;;;5.68;71.69;102427.56;10295103;28;20046;-47
2023/02/06 09:03:34;;;;;;;2.88;2.58;;;;;;;5.83;70.45;102426.31;10292472;28;20498;-46
2023/02/06 09:08:37;;;;;;;2.83;1.98;;;;;;;5.92;69.88;102423.41;10291618;28;20172;-46
2023/02/06 09:13:38;;;;;;;4.25;2.67;;;;;;;6.21;69.18;102418.28;10290997;28;20502;-46
2023/02/06 09:18:40;;;;;;;4.78;2.65;;;;;;;6.49;66.72;102424.53;10293157;28;20046;-50
2023/02/06 09:23:44;;;;;;;3.20;2.50;;;;;;;6.71;65.33;102416.84;10297286;28;20156;-52
2023/02/06 09:28:46;;;;;;;3.70;2.67;;;;;;;7.06;64.92;102429.94;10298380;28;20054;-47
2023/02/06 09:33:47;;;;;;;4.28;2.50;;;;;;;7.35;62.82;102423.69;10296732;28;20061;-50
2023/02/06 09:38:52;;;;;;;5.35;2.60;;;;;;;7.84;59.10;102428.31;10292558;28;20057;-48
2023/02/06 09:43:56;;;;;;;;;;;;;;;8.17;57.53;102418.28;10300159;28;20148;-48
2023/02/06 09:49:04;;;;;;;4.50;2.30;;;;;;;8.67;55.00;102417.38;10302195;28;20554;-53
2023/02/06 09:54:06;;;;;;;3.40;2.20;;;;;;;9.27;53.33;102416.81;10299453;28;20068;-47
2023/02/06 09:59:22;;;;;;;4.65;2.40;;;;;;;9.93;51.55;102410.53;10299980;28;20152;-47
2023/02/06 10:04:51;;;;;;;4.22;2.28;;;;;;;11.22;49.09;102406.41;10297766;28;20498;-47
2023/02/06 10:10:14;;;;;;;3.30;2.35;;;;;;;13.80;41.75;102396.06;10300416;28;20247;-47
2023/02/06 10:15:41;;;;;;;4.65;2.60;;;;;;;15.20;38.88;102389.94;10298708;28;20058;-48
2023/02/06 10:20:54;;;;;;;4.15;2.45;;;;;;;16.22;36.77;102366.06;10298950;28;20054;-49
2023/02/06 10:26:01;;;;;;;4.18;2.60;;;;;;;16.10;35.40;102367.78;10304043;28;20468;-48
2023/02/06 10:31:27;;;;;;;5.50;2.78;;;;;;;13.91;39.54;102365.94;10301232;28;20111;-49
2023/02/06 10:36:53;;;;;;;4.18;2.20;;;;;;;11.61;44.17;102374.22;10299560;28;20056;-46
2023/02/06 10:42:06;;;;;;;5.25;3.30;;;;;;;11.11;44.87;102366.97;10302221;28;20612;-46
2023/02/06 10:47:31;;;;;;;4.57;3.17;;;;;;;15.01;38.42;102349.19;10300336;28;20056;-47
2023/02/06 10:52:34;;;;;;;4.07;3.15;;;;;;;19.59;30.75;102335.31;10300495;28;20155;-52
2023/02/06 10:57:38;;;;;;;4.97;2.83;;;;;;;16.04;34.04;102333.28;10303329;28;20055;-48
2023/02/06 11:02:54;;;;;;;3.67;2.20;;;;;;;15.64;35.29;102328.88;10298632;28;20065;-46
2023/02/06 11:08:32;;;;;;;3.80;2.55;;;;;;;18.61;31.32;102312.88;10291002;28;20151;-46
2023/02/06 11:13:37;;;;;;;3.17;2.42;;;;;;;22.35;26.33;102311.94;10300805;28;20396;-47
2023/02/06 11:18:42;;;;;;;3.90;2.75;;;;;;;24.41;23.14;102291.78;10302916;28;20825;-49
2023/02/06 11:23:43;;;;;;;3.85;2.38;;;;;;;25.16;22.29;102301.78;10300965;28;20122;-49
2023/02/06 11:29:08;;;;;;;5.63;2.47;;;;;;;25.24;21.12;102296.34;10301668;28;20103;-47
2023/02/06 11:34:26;;;;;;;4.07;2.80;;;;;;;23.97;22.59;102271.91;10298812;28;20454;-47
2023/02/06 11:39:36;;;;;;;3.58;1.90;;;;;;;24.40;22.13;102276.50;10297473;28;20506;-47
2023/02/06 11:44:41;;;;;;;2.80;2.22;;;;;;;23.29;23.40;102275.38;10299591;28;20466;-46
2023/02/06 11:49:43;;;;;;;3.25;2.20;;;;;;;26.22;20.64;102267.16;10300958;28;20050;-48
2023/02/06 11:54:53;;;;;;;4.38;2.25;;;;;;;27.45;18.93;102262.66;10301717;28;20042;-47
2023/02/06 12:00:00;;;;;;;4.35;2.55;;;;;;;26.61;19.40;102263.50;10298179;28;20042;-47
2023/02/06 12:05:10;;;;;;;5.72;2.28;;;;;;;25.26;20.17;102247.97;10292866;28;20065;-47
2023/02/06 12:10:16;;;;;;;4.88;2.20;;;;;;;24.60;20.88;102250.69;10297081;28;20145;-49
2023/02/06 12:15:22;;;;;;;3.20;1.77;;;;;;;28.09;18.03;102242.06;10298795;28;20150;-47
2023/02/06 12:21:13;;;;;;;4.20;2.28;;;;;;;29.68;16.09;102230.00;10298883;28;20141;-47
2023/02/06 12:26:21;;;;;;;4.43;2.20;;;;;;;29.48;16.09;102233.47;10285695;28;20068;-48
2023/02/06 12:31:36;;;;;;;3.85;2.05;;;;;;;30.28;15.74;102220.13;10299557;28;20248;-48
2023/02/06 12:36:52;;;;;;;3.58;2.22;;;;;;;29.87;16.17;102221.03;10296960;28;20065;-47
2023/02/06 12:42:08;;;;;;;3.63;2.13;;;;;;;29.30;16.68;102222.19;10296812;28;20058;-48
2023/02/06 12:47:24;;;;;;;4.55;1.98;;;;;;;30.39;15.75;102209.59;10297160;28;20085;-48
2023/02/06 12:52:39;;;;;;;4.32;2.05;;;;;;;31.28;14.82;102194.59;10299175;28;20428;-48
2023/02/06 12:57:41;;;;;;;3.08;1.85;;;;;;;31.07;15.24;102195.69;10297497;28;20058;-48
2023/02/06 13:03:13;;;;;;;5.32;2.83;;;;;;;30.83;15.08;102200.75;10298449;28;20069;-47
2023/02/06 13:08:24;;;;;;;3.60;2.08;;;;;;;30.43;15.38;102188.88;10296815;28;20053;-46
2023/02/06 13:13:31;;;;;;;3.20;1.73;;;;;;;30.78;15.01;102188.72;10297314;28;20107;-53
2023/02/06 13:18:34;;;;;;;3.15;1.50;;;;;;;30.46;15.19;102193.97;10301777;28;20062;-48
2023/02/06 13:24:04;;;;;;;3.78;1.48;;;;;;;28.41;16.15;102188.72;10306149;28;20077;-49
2023/02/06 13:29:26;;;;;;;3.15;1.52;;;;;;;30.25;14.64;102187.59;10305935;28;20168;-47
2023/02/06 13:34:27;;;;;;;2.53;1.50;;;;;;;31.09;14.36;102176.22;10300226;28;20920;-47
2023/02/06 13:39:31;;;;;;;4.25;1.90;;;;;;;30.90;14.28;102178.75;10304735;28;20068;-49
2023/02/06 13:44:35;;;;;;;2.78;1.50;;;;;;;30.71;14.42;102179.63;10302794;28;20087;-47
2023/02/06 13:50:21;;;;;;;4.40;2.42;;;;;;;30.07;14.55;102162.59;10306780;28;20146;-47
2023/02/06 13:55:43;;;;;;;2.67;1.40;;;;;;;30.39;14.88;102177.47;10304092;28;20050;-47
2023/02/06 14:00:46;;;;;;;3.88;1.80;;;;;;;30.00;14.68;102176.31;10299905;28;20069;-53
2023/02/06 14:06:03;;;;;;;2.75;1.35;;;;;;;29.93;14.55;102183.69;10296967;28;20066;-47
2023/02/06 14:17:03;;;;;;;2.27;1.67;;;;;;;26.42;17.96;102172.84;10303334;28;20565;-48
2023/02/06 14:22:33;;;;;;;4.50;1.40;;;;;;;27.16;17.05;102161.25;10300765;28;20386;-50
2023/02/06 14:28:02;;;;;;;4.28;1.20;;;;;;;28.05;16.09;102162.25;10299100;28;20167;-48
2023/02/06 14:33:18;;;;;;;4.43;1.15;;;;;;;28.43;15.81;102156.50;10301754;28;21580;-47
2023/02/06 14:38:36;;;;;;;3.05;1.08;;;;;;;27.66;15.70;102160.69;10298815;28;20046;-49
2023/02/06 14:43:41;;;;;;;2.55;0.88;;;;;;;27.59;15.74;102165.22;10289635;28;20050;-48
2023/02/06 14:48:45;;;;;;;4.85;1.05;;;;;;;26.39;16.91;102159.56;10297367;28;20054;-48
2023/02/06 14:54:31;;;;;;;3.45;1.35;;;;;;;26.84;16.29;102154.22;10301344;28;20122;-52
2023/02/06 14:59:32;;;;;;;2.35;1.42;;;;;;;26.72;16.45;102145.66;10296702;28;20111;-47
2023/02/06 15:04:44;;;;;;;3.03;1.25;;;;;;;26.12;16.92;102150.00;10299162;28;20732;-48
2023/02/06 15:09:55;;;;;;;3.55;1.63;;;;;;;24.72;18.58;102144.19;10297531;28;20053;-47
2023/02/06 15:15:19;;;;;;;3.22;1.65;;;;;;;24.74;19.03;102142.13;10299113;28;20089;-48
2023/02/06 15:20:26;;;;;;;3.20;1.20;;;;;;;21.60;20.86;102127.69;10295635;28;20054;-47
2023/02/06 15:25:48;;;;;;;1.90;0.80;;;;;;;17.07;26.21;102132.09;10296976;28;20068;-47
2023/02/06 15:30:55;;;;;;;3.10;1.08;;;;;;;14.66;29.66;102132.59;10296157;28;20140;-46
2023/02/06 15:35:59;;;;;;;3.78;2.00;;;;;;;13.51;32.13;102143.59;10297713;28;20056;-48
2023/02/06 15:41:05;;;;;;;4.07;1.80;;;;;;;12.34;34.82;102152.34;10296680;28;20902;-46
2023/02/06 15:46:06;;;;;;;4.57;1.63;;;;;;;11.81;36.42;102162.41;10296595;28;20171;-46
2023/02/06 15:51:26;;;;;;;2.63;1.58;;;;;;;11.47;37.36;102163.41;10295927;28;20875;-46
2023/02/06 15:56:38;;;;;;;3.85;1.25;;;;;;;10.76;38.28;102167.94;10293761;28;20045;-46
2023/02/06 16:01:41;;;;;;;4.43;1.67;;;;;;;10.17;39.86;102159.28;10296277;28;20054;-48
2023/02/06 16:06:45;;;;;;;4.13;1.70;;;;;;;10.01;40.09;102158.28;10293973;28;20438;-47
2023/02/06 16:11:51;;;;;;;5.65;2.58;;;;;;;9.83;40.25;102166.22;10294882;28;20199;-47
2023/02/06 16:17:11;;;;;;;3.45;1.85;;;;;;;9.55;41.24;102175.47;10292113;28;20129;-45
2023/02/06 16:22:22;;;;;;;4.25;1.60;;;;;;;9.35;42.29;102183.47;10288929;28;20601;-47
2023/02/06 16:27:26;;;;;;;4.40;2.05;;;;;;;9.45;43.42;102179.47;10294065;28;20129;-55
2023/02/06 16:32:30;;;;;;;2.83;2.13;;;;;;;9.32;42.67;102188.91;10292732;28;20136;-56
2023/02/06 16:37:31;;;;;;;2.93;1.60;;;;;;;9.09;43.04;102193.44;10293089;28;20052;-55
2023/02/06 16:42:36;;;;;;;5.30;2.38;;;;;;;8.94;43.62;102191.47;10295059;28;20058;-54
2023/02/06 16:47:37;;;;;;;5.85;2.60;;;;;;;8.89;43.98;102193.44;10292689;28;20554;-54
2023/02/06 16:52:45;;;;;;;4.57;2.67;;;;;;;8.83;43.74;102195.44;10293374;28;20050;-47
2023/02/06 16:57:48;;;;;;;7.45;3.28;;;;;;;8.64;44.71;102205.09;10295282;28;21509;-47
2023/02/06 17:02:51;;;;;;;4.38;2.20;;;;;;;8.54;45.08;102206.41;10293673;28;20426;-51
2023/02/06 17:07:52;;;;;;;5.72;2.33;;;;;;;8.38;45.43;102207.00;10294328;28;20632;-47
2023/02/06 17:12:54;;;;;;;6.75;3.22;;;;;;;8.28;46.28;102216.25;10289511;28;20476;-45
2023/02/06 17:17:55;;;;;;;11.07;6.97;;;;;;;8.16;46.80;102222.03;10293620;28;20058;-45
2023/02/06 17:22:57;;;;;;;6.53;3.80;;;;;;;8.08;47.16;102209.94;10307995;28;20053;-45
2023/02/06 17:27:59;;;;;;;9.68;4.05;;;;;;;7.88;47.44;102209.81;10293081;28;20077;-43
2023/02/06 17:33:00;;;;;;;8.32;3.88;;;;;;;7.86;48.08;102203.72;10295666;28;20072;-46
2023/02/06 17:38:03;;;;;;;6.75;2.75;;;;;;;7.69;48.29;102221.13;10292923;28;20065;-45
2023/02/06 17:43:05;;;;;;;5.22;2.30;;;;;;;7.70;48.38;102214.03;10295679;28;22124;-44
2023/02/06 17:48:07;;;;;;;6.80;2.72;;;;;;;7.69;48.67;102213.16;10293390;28;20058;-45
2023/02/06 17:53:12;;;;;;;4.57;2.03;;;;;;;7.64;48.79;102209.84;10292244;28;20058;-45
2023/02/06 17:58:14;;;;;;;4.28;2.58;;;;;;;7.55;48.49;102218.09;10292920;28;20493;-44
2023/02/06 18:03:17;;;;;;;4.63;2.45;;;;;;;7.14;49.64;102216.00;10296505;28;20125;-44
2023/02/06 18:08:19;;;;;;;3.72;2.47;;;;;;;7.15;49.46;102222.19;10297368;28;20127;-45
2023/02/06 18:13:22;;;;;;;4.00;2.38;;;;;;;6.93;50.24;102222.91;10299292;28;20146;-45
2023/02/06 18:18:25;;;;;;;4.23;2.33;;;;;;;6.81;50.75;102218.03;10299542;28;20141;-45
2023/02/06 18:23:26;;;;;;;6.07;2.50;;;;;;;6.64;50.29;102219.44;10298733;28;20130;-45
2023/02/06 18:28:27;;;;;;;7.38;2.50;;;;;;;6.78;49.93;102212.84;10302107;28;20064;-46
2023/02/06 18:33:32;;;;;;;4.88;2.78;;;;;;;6.66;50.01;102214.09;10300940;28;20107;-45
2023/02/06 18:38:34;;;;;;;5.22;2.90;;;;;;;6.55;50.53;102217.09;10296569;28;20061;-46
2023/02/06 18:43:35;;;;;;;5.78;2.92;;;;;;;6.41;51.52;102214.91;10281954;28;20068;-47
2023/02/06 18:48:37;;;;;;;4.95;2.42;;;;;;;6.25;51.77;102203.94;10298570;28;20050;-45
2023/02/06 18:53:38;;;;;;;3.55;2.58;;;;;;;6.22;51.73;102219.03;10299246;28;20138;-45
2023/02/06 18:58:40;;;;;;;8.35;2.90;;;;;;;6.12;52.26;102214.00;10296319;28;20045;-46
2023/02/06 19:03:42;;;;;;;3.35;2.40;;;;;;;6.07;52.55;102221.22;10298330;28;20057;-48
2023/02/06 19:08:44;;;;;;;3.97;2.90;;;;;;;5.97;52.78;102209.19;10300340;28;20049;-46
2023/02/06 19:13:47;;;;;;;4.03;3.63;;;;;;;5.83;53.50;102223.66;10295672;28;20053;-46
2023/02/06 19:18:49;;;;;;;4.82;3.65;;;;;;;5.66;54.04;102229.44;10293646;28;20054;-48
2023/02/06 19:23:57;;;;;;;7.32;3.63;;;;;;;5.71;55.40;102233.72;10297372;28;20065;-48
2023/02/06 19:28:58;;;;;;;7.20;4.90;;;;;;;5.74;54.63;102257.41;10298870;28;20133;-47
2023/02/06 19:34:01;;;;;;;4.65;3.42;;;;;;;5.75;54.41;102267.94;10300376;28;20132;-46
2023/02/06 19:39:09;;;;;;;5.82;3.85;;;;;;;5.53;54.79;102283.50;10299559;28;20069;-47
2023/02/06 19:44:12;;;;;;;4.88;3.85;;;;;;;5.27;55.82;102287.72;10293924;28;20053;-46
2023/02/06 19:49:14;;;;;;;5.75;3.95;;;;;;;5.08;56.23;102286.44;10296438;28;20459;-46
2023/02/06 19:54:16;;;;;;;7.03;4.30;;;;;;;5.11;56.44;102315.41;10298906;28;20058;-46
2023/02/06 19:59:24;;;;;;;6.72;4.40;;;;;;;5.04;56.79;102327.03;10296912;28;20061;-46
2023/02/06 20:04:31;;;;;;;5.18;4.43;;;;;;;4.92;56.93;102322.91;10298974;28;21291;-47
2023/02/06 20:09:33;;;;;;;4.70;4.25;;;;;;;4.84;57.14;102320.44;10295939;28;20054;-50
2023/02/06 20:14:34;;;;;;;5.03;4.43;;;;;;;4.68;57.49;102319.06;10294041;28;20046;-46
2023/02/06 20:19:36;;;;;;;6.43;3.95;;;;;;;4.73;57.25;102317.19;10298797;28;20838;-47
2023/02/06 20:24:37;;;;;;;3.80;3.50;;;;;;;4.69;57.66;102318.16;10293130;28;20053;-47
2023/02/06 20:29:41;;;;;;;6.75;4.45;;;;;;;4.50;58.21;102334.38;10294403;28;20147;-47
2023/02/06 20:34:43;;;;;;;4.65;4.07;;;;;;;4.73;57.44;102325.13;10294925;28;20057;-47
2023/02/06 20:39:44;;;;;;;6.20;4.38;;;;;;;4.74;57.06;102313.63;10296551;28;20064;-47
2023/02/06 20:44:46;;;;;;;5.78;3.83;;;;;;;4.84;56.39;102324.88;10294350;28;20057;-47
2023/02/06 20:49:47;;;;;;;5.60;4.13;;;;;;;4.86;56.74;102328.31;10292243;28;20058;-48
2023/02/06 20:54:49;;;;;;;3.65;3.35;;;;;;;4.75;56.75;102305.69;10293873;28;20133;-47
2023/02/06 20:59:50;;;;;;;4.65;2.75;;;;;;;4.66;57.17;102298.00;10293883;28;20058;-46
2023/02/06 21:04:52;;;;;;;3.00;2.70;;;;;;;4.56;56.79;102310.53;10289288;28;22648;-54
2023/02/06 21:09:53;;;;;;;5.00;3.35;;;;;;;4.47;56.99;102316.00;10288881;28;20117;-47
2023/02/06 21:14:55;;;;;;;3.90;3.20;;;;;;;4.45;57.25;102315.16;10288520;28;20054;-47
2023/02/06 21:19:56;;;;;;;3.72;3.42;;;;;;;4.35;57.77;102311.00;10291148;28;20462;-46
2023/02/06 21:24:58;;;;;;;3.60;3.08;;;;;;;4.33;57.53;102313.66;10290024;28;20530;-51
2023/02/06 21:30:00;;;;;;;3.33;3.03;;;;;;;4.31;57.66;102322.50;10292215;28;20068;-46
2023/02/06 21:35:02;;;;;;;5.65;3.33;;;;;;;4.47;57.09;102337.09;10286862;28;20058;-47
2023/02/06 21:40:04;;;;;;;4.38;2.88;;;;;;;4.57;57.16;102325.44;10291438;28;20192;-47
2023/02/06 21:45:07;;;;;;;3.50;2.97;;;;;;;4.60;56.89;102317.47;10297977;28;20530;-48
2023/02/06 21:50:09;;;;;;;3.90;3.28;;;;;;;4.62;56.88;102330.59;10293016;28;20058;-46
2023/02/06 21:55:10;;;;;;;4.07;3.00;;;;;;;4.68;56.64;102340.16;10292981;28;20097;-46
2023/02/06 22:00:12;;;;;;;3.17;2.78;;;;;;;4.71;56.81;102342.72;10292213;28;20054;-47
2023/02/06 22:05:14;;;;;;;3.50;2.40;;;;;;;4.77;56.57;102324.13;10291282;28;20065;-47
2023/02/06 22:10:15;;;;;;;4.43;3.55;;;;;;;4.76;56.58;102322.41;10292564;28;20060;-47
2023/02/06 22:15:17;;;;;;;3.28;2.97;;;;;;;4.72;56.76;102333.94;10293703;28;20053;-46
2023/02/06 22:20:19;;;;;;;3.10;2.67;;;;;;;4.69;56.83;102337.50;10289346;28;20103;-46
2023/02/06 22:25:20;;;;;;;4.13;2.67;;;;;;;4.71;56.50;102345.38;10305671;28;20058;-47
2023/02/06 22:30:23;;;;;;;3.65;2.80;;;;;;;4.60;56.93;102342.97;10305899;28;20061;-47
2023/02/06 22:35:24;;;;;;;3.35;2.50;;;;;;;4.61;57.23;102334.19;10306234;28;20068;-52
2023/02/06 22:40:26;;;;;;;2.60;2.33;;;;;;;4.53;57.04;102321.13;10301112;28;20089;-47
2023/02/06 22:45:28;;;;;;;2.85;2.40;;;;;;;4.55;57.10;102329.03;10300848;28;20729;-46
2023/02/06 22:50:29;;;;;;;3.90;2.90;;;;;;;4.54;57.10;102324.66;10302849;28;20490;-47
2023/02/06 22:56:25;;;;;;;3.75;2.53;;;;;;;4.54;57.30;102322.00;10303528;28;20053;-52
2023/02/06 23:01:02;;;;;;;2.90;2.70;;;;;;;4.52;57.54;102326.44;10303716;28;20046;-47
2023/02/06 23:06:06;;;;;;;3.28;2.50;;;;;;;4.54;57.05;102332.56;10306729;28;20053;-47
2023/02/06 23:11:09;;;;;;;2.85;2.42;;;;;;;4.52;56.90;102331.72;10306759;28;20478;-47
2023/02/06 23:16:11;;;;;;;2.83;2.60;;;;;;;4.54;56.84;102338.69;10310352;28;20060;-47
2023/02/06 23:21:13;;;;;;;2.85;2.58;;;;;;;4.47;56.93;102338.88;10301527;28;20054;-47
2023/02/06 23:26:17;;;;;;;2.40;2.20;;;;;;;4.44;57.12;102345.06;10306937;28;20054;-47
2023/02/06 23:31:18;;;;;;;2.42;1.80;;;;;;;4.42;57.30;102331.06;10304003;28;20618;-48
2023/02/06 23:36:22;;;;;;;1.63;1.52;;;;;;;4.54;57.42;102349.25;10300552;28;20054;-47
2023/02/06 23:41:26;;;;;;;2.20;2.00;;;;;;;4.40;57.40;102338.16;10297255;28;20116;-47